Reese River Valley, Nevada Weather observations

Data are for 10 minute period ending at time listed.
 Day   Time   Solar   Ave.   Ave.  Ave.  Vector  Max.   Baro.   Total    
  of    of     Rad.   Air    Rel.  Wind   Wind   Wind  Press.  Precip.   
Year   Day            Temp.  Hum.  Speed  Dir.   Gust                    
2016   (PST)  Kw/m2    F      %     mph   deg.    mph    mb.     in.     
-------------------------------------------------------------------------
 182   17:30   0.10   82.0    16    9.2   341    12.1   813.2    0.00 
 182   17:40   0.11   82.5    17    8.6   346    13.0   813.3    0.00 
 182   17:50   0.11   83.4    15    8.7   335    11.9   813.4    0.00 
 182   18:00   0.10   83.5    15    7.0   334    10.7   813.6    0.00 
 182   18:10   0.11   83.5    14    8.5   331    12.3   813.6    0.00 
 182   18:20   0.10   83.5    15    7.7   329    12.2   813.6    0.00 
 182   18:30   0.07   81.9    16    7.1   322    11.5   813.7    0.00 
 182   18:40   0.07   81.0    18    4.2     1     7.0   813.8    0.00 
 182   18:50   0.05   77.1    29    5.3   113     9.0   814.0    0.00 
 182   19:00   0.04   76.0    29    6.2   103     9.0   814.1    0.00 
 182   19:10   0.03   75.1    29    7.1    95     9.8   814.2    0.00 
 182   19:20   0.02   74.4    30    5.7    85     8.8   814.3    0.00 
 182   19:30   0.01   74.5    28    4.6   118     6.9   814.4    0.00 
 182   19:40   0.00   74.0    27    5.8   130     7.9   814.4    0.00 
 182   19:50   0.00   72.4    28    4.2   191     7.5   814.5    0.00 
 182   20:00   0.00   71.7    26    3.7   259     5.6   814.7    0.00 
 182   20:10   0.00   74.9    24    3.8   166     6.6   814.7    0.00 
 182   20:20   0.00   72.7    28    5.0   140     6.1   814.7    0.00 
 182   20:30   0.00   71.2    27    5.1   153     6.4   814.7    0.00 
 182   20:40   0.00   70.3    28    4.3   143     6.3   814.9    0.00 
 182   20:50   0.00   72.7    27    7.1   113    10.1   815.0    0.00 
 182   21:00   0.00   73.9    24    5.2   171     9.1   815.2    0.00 
 182   21:10   0.00   73.2    26   11.5   188    25.9   815.5    0.00 
 182   21:20   0.00   74.7    27   15.8   192    25.0   815.6    0.00 
 182   21:30   0.00   74.3    28   14.4   194    26.7   815.7    0.00 
 182   21:40   0.00   73.2    30   13.8   201    19.4   815.7    0.00 
 182   21:50   0.00   72.8    31   14.6   222    23.2   815.8    0.00 
 182   22:00   0.00   72.6    31   12.8   217    19.3   815.9    0.00 
 182   22:10   0.00   72.2    32   13.5   200    24.8   815.9    0.00 
 182   22:20   0.00   72.5    31   12.6   195    20.3   815.8    0.00 
 182   22:30   0.00   72.1    31   13.4   216    23.7   815.6    0.00 
 182   22:40   0.00   72.1    31    7.2   219    16.5   815.9    0.00 
 182   22:50   0.00   72.3    27   11.0   192    19.5   815.7    0.00 
 182   23:00   0.00   73.5    26    8.6   231    16.5   815.9    0.00 
 182   23:10   0.00   73.1    26    7.9   270    20.2   815.8    0.00 
 182   23:20   0.00   70.8    32    9.1   248    13.5   815.6    0.00 
 182   23:30   0.00   70.4    31    6.9   220    13.7   815.5    0.00 
 182   23:40   0.00   68.3    34    4.3   185     8.0   815.4    0.00 
 182   23:50   0.00   67.4    33    8.2   187    12.5   815.4    0.00 
 183    0:00   0.00   67.3    34    8.1   192    10.6   815.3    0.00 
 183    0:10   0.00   65.9    37    7.3   186     9.4   815.3    0.00 
 183    0:20   0.00   65.9    36    7.9   169    11.0   815.4    0.00 
 183    0:30   0.00   67.2    34    8.6   171    13.4   815.4    0.00 
 183    0:40   0.00   68.8    33    9.4   174    13.7   815.4    0.00 
 183    0:50   0.00   69.4    32    8.1   186    12.9   815.5    0.00 
 183    1:00   0.00   67.0    38    5.5   211     8.9   815.5    0.00 
 183    1:10   0.00   66.0    37    6.3   206    11.0   815.5    0.00 
 183    1:20   0.00   62.2    46    4.7   223     7.0   815.5    0.00 
 183    1:30   0.00   60.1    50    5.4   238     6.8   815.6    0.00 
 183    1:40   0.00   59.9    50    7.0   249     9.2   815.7    0.00 
 183    1:50   0.00   60.0    50    5.5   229     8.0   815.6    0.00 
 183    2:00   0.00   58.1    54    4.9   229     6.0   815.7    0.00 
 183    2:10   0.00   57.1    54    6.6   240     8.8   815.7    0.00 
 183    2:20   0.00   58.3    52    6.6   244     8.2   815.7    0.00 
 183    2:30   0.00   57.9    54    6.9   240     8.4   815.7    0.00 
 183    2:40   0.00   57.8    54    6.8   232     7.9   815.7    0.00 
 183    2:50   0.00   56.7    56    6.3   230     7.7   815.6    0.00 
 183    3:00   0.00   57.9    51    6.8   210    11.6   815.6    0.00 
 183    3:10   0.00   64.2    39    7.6   206    14.7   815.7    0.00 
 183    3:20   0.00   59.0    50    5.6   222     7.7   815.8    0.00 
 183    3:30   0.00   56.8    54    5.5   207     8.8   815.8    0.00 
 183    3:40   0.00   60.5    48    8.7   201    13.4   815.8    0.00 
 183    3:50   0.00   62.9    45    9.0   201    14.1   815.8    0.00 
 183    4:00   0.00   63.0    44   10.4   189    16.5   815.9    0.00 
 183    4:10   0.00   63.4    42    9.9   182    15.1   815.9    0.00 
 183    4:20   0.00   63.5    42    8.5   176    12.5   816.0    0.00 
 183    4:30   0.00   63.4    43    7.1   185    12.1   816.1    0.00 
 183    4:40   0.01   59.8    52    5.4   214     8.3   816.2    0.00 
 183    4:50   0.01   61.5    46    8.8   182    12.9   816.2    0.00 
 183    5:00   0.01   63.5    44    9.2   179    13.7   816.2    0.00 
 183    5:10   0.03   64.0    42    8.2   183    12.3   816.2    0.00 
 183    5:20   0.06   62.2    47    5.9   210     8.3   816.3    0.00 
 183    5:30   0.06   58.7    56    4.9   236     8.2   816.4    0.00 
 183    5:40   0.16   59.5    55    7.3   239    10.2   816.4    0.00 
 183    5:50   0.19   62.8    49    7.0   214    12.1   816.3    0.00 
 183    6:00   0.23   69.1    35    9.2   178    14.2   816.3    0.00 
 183    6:10   0.26   71.2    32    9.3   177    14.0   816.5    0.00 
 183    6:20   0.29   72.5    31    9.7   180    14.2   816.5    0.00 
 183    6:30   0.33   73.4    30    9.8   187    14.8   816.5    0.00 
 183    6:40   0.36   73.7    29    9.8   182    15.6   816.6    0.00 
 183    6:50   0.40   74.2    30    9.2   190    13.8   816.7    0.00 
 183    7:00   0.43   74.5    30    8.9   192    13.9   816.7    0.00 
 183    7:10   0.46   74.9    30    9.7   197    13.6   816.7    0.00 
 183    7:20   0.50   75.6    28    8.7   190    12.7   816.6    0.00 
 183    7:30   0.53   76.9    26    9.3   190    13.4   816.6    0.00 
 183    7:40   0.57   77.3    28    9.1   200    14.0   816.6    0.00 
 183    7:50   0.60   77.9    26    9.8   198    14.4   816.5    0.00 
 183    8:00   0.63   78.0    27    8.3   206    12.8   816.5    0.00 
 183    8:10   0.66   79.2    25    7.5   198    11.1   816.4    0.00 
 183    8:20   0.69   80.1    25    5.1   229    10.2   816.3    0.00 
 183    8:30   0.73   81.5    22    4.4   174     9.8   816.3    0.00 
 183    8:40   0.76   81.7    23    3.3   225     9.1   816.2    0.00 
 183    8:50   0.79   81.7    22    2.6    84     6.6   816.1    0.00 
 183    9:00   0.81   82.7    21    2.7   177     7.2   816.1    0.00 
 183    9:10   0.84   82.5    22    4.1   294     7.9   816.0    0.00 
 183    9:20   0.86   81.5    24    4.0   356     8.0   816.0    0.00 
 183    9:30   0.88   81.1    26    4.3   360     7.6   816.0    0.00 
 183    9:40   0.91   82.5    22    3.7   322     7.4   816.0    0.00 
 183    9:50   0.93   83.1    24    4.6   316    14.0   815.9    0.00 
 183   10:00   0.96   84.4    20    3.0   165     6.5   815.8    0.00 
 183   10:10   0.99   84.7    20    3.3   124     6.4   815.7    0.00 
 183   10:20   1.06   86.4    20    1.9    89     5.0   815.7    0.00 
 183   10:30   0.30   84.3    23    1.4    48     3.2   815.7    0.00 
 183   10:40   0.18   80.7    24    4.6   272     8.3   815.7    0.00 
 183   10:50   0.16   78.9    26    5.4   297     8.2   815.7    0.00 
 183   11:00   0.14   77.5    26    8.1   291    14.4   815.7    0.00 
 183   11:10   0.13   76.5    28    7.3   277    14.2   815.9    0.00 
 183   11:20   0.14   76.7    27    6.8   274     9.7   815.8    0.00 
 183   11:30   0.19   76.4    30    6.8   264     9.4   815.7    0.00 
 183   11:40   0.25   76.9    30    5.7   260     8.3   815.6    0.00 
 183   11:50   0.50   78.8    27    4.2   270     6.2   815.6    0.00 
 183   12:00   0.39   81.3    23    4.9   264     8.0   815.6    0.00 
 183   12:10   0.27   80.9    24    3.3   256     6.1   815.5    0.00 
 183   12:20   0.29   81.0    26    2.2   206     4.4   815.4    0.00 
 183   12:30   0.22   81.1    25    4.5   121     7.4   815.3    0.00 
 183   12:40   0.25   79.4    26    8.9   139    13.0   815.0    0.00 
 183   12:50   0.11   78.5    26    8.4   134    12.3   815.0    0.00 
 183   13:00   0.03   77.5    18    8.2   160    14.5   815.3    0.00 
 183   13:10   0.02   74.0    27   11.4   214    19.3   815.9    0.00 
 183   13:20   0.02   67.5    47   10.0   206    14.8   816.6    0.00 
 183   13:30   0.02   65.1    51    6.4   209    11.2   816.8    0.01 
 183   13:40   0.02   64.8    54    8.4   241    14.0   817.2    0.00 
 183   13:50   0.01   64.7    51    6.3   200    10.3   817.5    0.00 
 183   14:00   0.02   64.6    59   11.4   136    17.0   817.4    0.00 
 183   14:10   0.02   64.8    53   15.7   146    23.3   817.1    0.00 
 183   14:20   0.02   64.5    52   18.8   146    25.4   816.8    0.00 
 183   14:30   0.02   64.9    49   24.2   130    35.4   816.5    0.00 
 183   14:40   0.03   64.3    50   21.9   127    30.5   816.7    0.00 
 183   14:50   0.04   66.3    44   21.0   109    30.7   816.9    0.00 
 183   15:00   0.03   65.1    48   18.5   116    28.3   817.4    0.00 
 183   15:10   0.03   64.6    50   13.5   134    22.6   817.6    0.00 
 183   15:20   0.03   64.3    54   11.5   154    18.0   817.7    0.00 
 183   15:30   0.03   64.3    51    9.2   186    13.5   817.6    0.00 
 183   15:40   0.04   65.9    47   10.9   183    16.4   817.2    0.00 
 183   15:50   0.04   64.3    54   15.8   204    22.9   817.3    0.00 
 183   16:00   0.04   63.6    56   15.2   211    22.1   817.2    0.00 
 183   16:10   0.04   62.8    59   17.5   205    22.7   817.1    0.00 
 183   16:20   0.05   63.0    57   19.8   209    28.4   816.6    0.00 
 183   16:30   0.07   63.2    57   19.3   219    26.7   816.4    0.00 
 183   16:40   0.08   63.4    56   15.5   209    24.8   816.3    0.00 
 183   16:50   0.08   64.0    53   12.0   203    18.0   816.4    0.00 
 183   17:00   0.08   64.0    56   10.5   185    15.9   816.4    0.00 
 183   17:10   0.08   64.2    54   10.7   190    15.8   816.4    0.00 
 183   17:20   0.09   65.5    49   16.4   178    27.0   816.6    0.00 

Return to Reese River Valley graphs page.


Western Regional Climate Center,wrcc@dri.edu